Flight Track Log - Related Links

Times and Time Zones

All times are in EDT time to prevent confusion due to time zone crossing. See the N31122 flight status page for this flight to view local times or setup timezone preferences in your user account.

Time Position Orientation Groundspeed Altitude Reporting Facility
EDT Latitude Longitude Course Direction KTS MPH feet Rate Location/Type
Wed 03:18:14 PM 41.4781 -74.6706 255° West 181 208 8,500  Level Boston Center
Wed 03:19:14 PM 41.5000 -74.7239 299° West 181 208 8,100 -200 Descending Boston Center
Wed 03:20:14 PM 41.5172 -74.7911 289° West 176 203 8,100  Level Boston Center
Wed 03:22:00 PM 41.5377 -74.8911 285° West  Level Estimated
Wed 03:23:00 PM 41.6915 -75.0407 255° West  Level FlightAware Approximate
Wed 03:29:00 PM 41.6170 -75.2835 285° West  Level Estimated
Wed 03:30:00 PM 41.6282 -75.3397 285° West  Level Estimated
Wed 03:31:00 PM 41.6394 -75.3958 285° West  Level Estimated
Wed 03:32:00 PM 41.6506 -75.4520 285° West  Level Estimated
Wed 03:33:00 PM 41.6617 -75.5082 285° West  Level Estimated
Wed 03:34:00 PM 41.6728 -75.5644 285° West  Level Estimated
Wed 03:35:00 PM 41.6839 -75.6206 285° West  Level Estimated
Wed 03:36:00 PM 41.6949 -75.6769 285° West  Level Estimated
Wed 03:37:00 PM 41.7060 -75.7331 285° West  Level Estimated
Wed 03:38:00 PM 41.7170 -75.7894 285° West  Level Estimated
Wed 03:39:00 PM 41.7279 -75.8457 285° West  Level Estimated
Wed 03:40:00 PM 41.7389 -75.9021 285° West  Level Estimated
Wed 03:41:00 PM 41.7498 -75.9584 285° West  Level Estimated
Wed 03:42:00 PM 41.7607 -76.0148 285° West  Level Estimated
Wed 03:43:00 PM 41.7716 -76.0712 285° West  Level Estimated
Wed 03:44:00 PM 41.7824 -76.1276 284° West  Level Estimated
Wed 03:45:00 PM 41.7932 -76.1840 284° West  Level Estimated
Wed 03:46:00 PM 41.8040 -76.2405 284° West  Level Estimated
Wed 03:47:00 PM 41.8147 -76.2969 284° West  Level Estimated
Wed 03:48:00 PM 41.8255 -76.3534 284° West  Level Estimated
Wed 03:49:00 PM 41.8362 -76.4099 284° West  Level Estimated
Wed 03:50:00 PM 41.8468 -76.4664 284° West  Level Estimated
Wed 03:51:00 PM 41.8575 -76.5230 284° West  Level Estimated
Wed 03:52:00 PM 41.8681 -76.5795 284° West  Level Estimated
Wed 03:53:00 PM 41.8787 -76.6361 284° West  Level Estimated
Wed 03:54:00 PM 41.8892 -76.6927 284° West  Level Estimated
Wed 03:55:00 PM 41.8998 -76.7493 284° West  Level Estimated
Wed 03:56:00 PM 41.9103 -76.8059 284° West  Level Estimated
Wed 03:56:57 PM 41.9608 -77.0814 284° West 168 193 8,100  Level Cleveland Center
Wed 03:57:00 PM 41.9207 -76.8626 284° West  Level Estimated
Wed 03:57:57 PM 41.9753 -77.1447 287° West 163 188 8,100  Level Cleveland Center
Wed 03:58:00 PM 41.9312 -76.9193 284° West  Level Estimated
Wed 03:58:57 PM 41.9856 -77.2056 283° West 163 188 8,100  Level Cleveland Center
Wed 03:59:00 PM 41.9416 -76.9760 284° West  Level Estimated
Wed 03:59:57 PM 41.9956 -77.2667 282° West 163 188 8,100  Level Cleveland Center
Wed 04:00:00 PM 41.9520 -77.0327 284° West  Level Estimated
Wed 04:00:57 PM 42.0078 -77.3275 285° West 163 188 8,100  Level Cleveland Center
Wed 04:01:00 PM 41.9623 -77.0894 284° West  Level Estimated
Wed 04:01:57 PM 42.0178 -77.3883 282° West 163 188 8,100  Level Cleveland Center
Wed 04:02:00 PM 41.9727 -77.1461 284° West  Level Estimated
Wed 04:02:57 PM 42.0278 -77.4494 282° West 163 188 8,100  Level Cleveland Center
Wed 04:03:57 PM 42.0397 -77.5103 285° West 163 188 8,100  Level Cleveland Center
Wed 04:04:57 PM 42.0519 -77.5714 285° West 163 188 8,100  Level Cleveland Center
Wed 04:05:57 PM 42.0597 -77.6325 280° West 163 188 8,100  Level Cleveland Center
Wed 04:06:57 PM 42.0739 -77.6933 287° West 163 188 8,100  Level Cleveland Center
Wed 04:07:57 PM 42.0836 -77.7544 282° West 163 188 8,100  Level Cleveland Center
Wed 04:08:57 PM 42.0936 -77.8186 282° West 163 188 8,100 -50 Level Cleveland Center
Wed 04:09:57 PM 42.1053 -77.8794 285° West 163 188 8,000 -50 Descending Cleveland Center
Wed 04:10:57 PM 42.1153 -77.9436 282° West 168 193 8,000  Level Cleveland Center
Wed 04:11:57 PM 42.1269 -78.0047 284° West 168 193 8,000  Level Cleveland Center
Wed 04:12:57 PM 42.1389 -78.0658 285° West 168 193 8,000  Level Cleveland Center
Wed 04:13:57 PM 42.1486 -78.1297 282° West 168 193 8,000  Level Cleveland Center
Wed 04:14:57 PM 42.1519 -78.1942 274° West 168 193 8,000  Level Cleveland Center
Wed 04:15:57 PM 42.1636 -78.2553 284° West 174 200 8,000  Level Cleveland Center
Wed 04:16:57 PM 42.1794 -78.3164 289° West 174 200 8,000  Level Cleveland Center
Wed 04:17:57 PM 42.1911 -78.3833 283° West 174 200 8,000  Level Cleveland Center
Wed 04:18:58 PM 42.2028 -78.4444 284° West 180 207 8,000  Level Cleveland Center
Wed 04:19:57 PM 42.2144 -78.5114 283° West 185 213 8,000  Level Cleveland Center
Wed 04:20:57 PM 42.2239 -78.5756 281° West 180 207 8,000  Level Cleveland Center
Wed 04:21:58 PM 42.2353 -78.6397 284° West 180 207 8,000  Level Cleveland Center
Wed 04:22:57 PM 42.2469 -78.7011 284° West 180 207 8,000  Level Cleveland Center
Wed 04:23:57 PM 42.2561 -78.7653 281° West 180 207 8,000  Level Cleveland Center
Wed 04:24:57 PM 42.2678 -78.8294 284° West 180 207 8,000  Level Cleveland Center
Wed 04:25:57 PM 42.2789 -78.8939 283° West 180 207 8,000  Level Cleveland Center
Wed 04:26:57 PM 42.2864 -78.9636 278° West 190 219 8,000 50 Level Cleveland Center
Wed 04:27:57 PM 42.2975 -79.0197 285° West 179 206 8,100 50 Climbing Cleveland Center
Wed 04:28:57 PM 42.3089 -79.0839 284° West 179 206 8,100  Level Cleveland Center
Wed 04:29:57 PM 42.3200 -79.1567 282° West 179 206 8,100  Level Cleveland Center
Wed 04:30:57 PM 42.3292 -79.2211 281° West 179 206 8,100  Level Cleveland Center
Wed 04:31:57 PM 42.3403 -79.2853 283° West 179 206 8,100  Level Cleveland Center
Wed 04:32:57 PM 42.3514 -79.3442 284° West 179 206 8,100  Level Cleveland Center
Wed 04:33:57 PM 42.3625 -79.4142 282° West 179 206 8,100  Level Cleveland Center
Wed 04:34:57 PM 42.3717 -79.4814 280° West 179 206 8,100  Level Cleveland Center
Wed 04:35:57 PM 42.3825 -79.5458 283° West 179 206 8,100  Level Cleveland Center
Wed 04:37:56 PM 42.4000 -79.6667 281° West 175 201 8,100  Level Buffalo TRACON
Wed 04:38:56 PM 42.4167 -79.7333 289° West 178 205 8,100  Level Buffalo TRACON
Wed 04:39:56 PM 42.4167 -79.8000 270° West 174 200 8,100  Level Buffalo TRACON
Wed 04:40:56 PM 42.4333 -79.8667 289° West 173 199 8,100  Level Buffalo TRACON
Wed 04:41:56 PM 42.4333 -79.9167 270° West 175 201 8,100  Level Buffalo TRACON
Wed 04:42:56 PM 42.4500 -79.9833 289° West 174 200 8,100  Level Buffalo TRACON
Wed 04:44:00 PM 42.4605 -80.0455 283° West  Level FlightAware Approximate
Wed 04:48:22 PM 42.4994 -80.3242 283° West 144 166 8,100  Level Cleveland Center
Wed 04:49:21 PM 42.5100 -80.3861 283° West 138 159 8,100  Level Cleveland Center
Wed 04:50:21 PM 42.5186 -80.4508 280° West 168 193 8,100  Level Cleveland Center
Wed 04:51:00 PM 42.5290 -80.4541 283° West  Level FlightAware Approximate
Wed 04:51:22 PM 42.5289 -80.5100 283° West 175 201 8,100  Level Cleveland Center
Wed 04:52:21 PM 42.5394 -80.5803 282° West 175 201 8,100  Level Cleveland Center
Wed 04:53:21 PM 42.5478 -80.6422 280° West 175 201 8,100  Level Cleveland Center
Wed 04:54:21 PM 42.5581 -80.7072 282° West 170 196 8,100  Level Cleveland Center
Wed 04:55:21 PM 42.5664 -80.7636 281° West 170 196 8,100  Level Cleveland Center
Wed 04:56:22 PM 42.5747 -80.8228 281° West 164 189 8,100  Level Cleveland Center
Wed 04:57:22 PM 42.5828 -80.8850 280° West 164 189 8,100  Level Cleveland Center
Wed 04:58:22 PM 42.5931 -80.9525 282° West 164 189 8,100  Level Cleveland Center
Wed 04:59:22 PM 42.6011 -81.0119 280° West 164 189 8,100  Level Cleveland Center
Wed 05:00:22 PM 42.6092 -81.0739 280° West 164 189 8,100  Level Cleveland Center
Wed 05:01:22 PM 42.6194 -81.1361 283° West 164 189 8,100  Level Cleveland Center
Wed 05:02:22 PM 42.6275 -81.1928 281° West 164 189 8,100  Level Cleveland Center
Wed 05:03:22 PM 42.6353 -81.2547 280° West 164 189 8,100  Level Cleveland Center
Wed 05:04:22 PM 42.6433 -81.3169 280° West 164 189 8,100  Level Cleveland Center
Wed 05:05:22 PM 42.6556 -81.3792 285° West 169 194 8,100  Level Cleveland Center
Wed 05:06:21 PM 42.6611 -81.4414 277° West 169 194 8,100  Level Cleveland Center
Wed 05:07:21 PM 42.6711 -81.5067 282° West 164 189 8,100  Level Cleveland Center
Wed 05:08:22 PM 42.6789 -81.5631 281° West 164 189 8,100  Level Cleveland Center
Wed 05:09:22 PM 42.6889 -81.6339 281° West 164 189 8,100  Level Cleveland Center
Wed 05:10:22 PM 42.6967 -81.6961 280° West 164 189 8,100  Level Cleveland Center
Wed 05:11:22 PM 42.7064 -81.7558 283° West 164 189 8,100  Level Cleveland Center
Wed 05:12:22 PM 42.7142 -81.8153 280° West 164 189 8,100  Level Cleveland Center
Wed 05:13:22 PM 42.7239 -81.8747 283° West 164 189 8,100  Level Cleveland Center
Wed 05:14:22 PM 42.7356 -81.9456 283° West 164 189 8,100  Level Cleveland Center
Wed 05:15:22 PM 42.7453 -82.0081 282° West 164 189 8,100  Level Cleveland Center
Wed 05:16:22 PM 42.7508 -82.0703 277° West 164 189 8,100  Level Cleveland Center
Wed 05:17:22 PM 42.7603 -82.1272 283° West 164 189 8,100  Level Cleveland Center
Wed 05:18:22 PM 42.7658 -82.1867 277° West 164 189 8,100  Level Cleveland Center
Wed 05:19:22 PM 42.7733 -82.2492 279° West 164 189 8,100  Level Cleveland Center
Wed 05:21:00 PM 42.7865 -82.3467 280° West  Level FlightAware Approximate
Wed 05:28:00 PM 42.8422 -82.7652 280° West  Level FlightAware Approximate
Wed 05:29:00 PM 42.8500 -82.8251 280° West  Level FlightAware Approximate
Wed 05:30:00 PM 42.8578 -82.8851 280° West  Level FlightAware Approximate
Wed 05:31:00 PM 42.8656 -82.9452 280° West  Level FlightAware Approximate
Wed 05:32:00 PM 42.8733 -83.0053 280° West  Level FlightAware Approximate
Wed 05:33:00 PM 42.8810 -83.0654 280° West  Level FlightAware Approximate
Wed 05:34:00 PM 42.8866 -83.1259 276° West  Level FlightAware Approximate
Wed 05:35:00 PM 42.8913 -83.1866 276° West  Level FlightAware Approximate
Wed 05:36:00 PM 42.8960 -83.2473 276° West  Level FlightAware Approximate
Wed 05:37:00 PM 42.9013 -83.3078 283° West  Level FlightAware Approximate
Wed 05:38:00 PM 42.9112 -83.3674 283° West  Level FlightAware Approximate
Wed 05:39:00 PM 42.9167 -83.4276 270° West  Level FlightAware Approximate
Wed 05:40:00 PM 42.9200 -83.4882 282° West  Level FlightAware Approximate
Wed 05:41:00 PM 42.9292 -83.5479 282° West  Level FlightAware Approximate
Wed 05:42:00 PM 42.9384 -83.6077 282° West  Level FlightAware Approximate
Wed 05:43:00 PM 42.9476 -83.6675 282° West  Level FlightAware Approximate
Wed 05:44:00 PM 42.9500 -83.7282 270° West  Level FlightAware Approximate
Wed 05:45:00 PM 42.9500 -83.7333 270° West  Level FlightAware Approximate
Wed 05:46:00 PM 42.9654 -83.7437 270° West  Level Estimated
Wed 05:47:00 PM 42.9654 -83.7437 270° West  Level Estimated
Wed 05:48:00 PM 42.9654 -83.7437 270° West  Level Estimated
Wed 05:49:00 PM 42.9654 -83.7437 270° West  Level Estimated
Wed 05:50:00 PM 42.9654 -83.7437 270° West  Level Estimated
Wed 05:51:00 PM 42.9654 -83.7437 270° West  Level Estimated
Wed 05:52:00 PM 42.9654 -83.7437 270° West  Level Estimated
Wed 05:53:00 PM 42.9654 -83.7437 270° West  Level Estimated

Login

Don't have an account? Register now (free) for customized features, flight alerts, and more!